Time;durP1;ratioP1;P1;durP2;ratioP2;P2;SDS_P1;SDS_P2;PMS_P1;PMS_P2;Temp;Humidity;BMP_temperature;BMP_pressure;BME280_temperature;BME280_humidity;BME280_pressure;Samples;Min_cycle;Max_cycle;Signal;HPM_P1;HPM_P2
2023/08/28 00:00:27;;;;;;;5.53;4.27;;;;;23.50;100091.00;;;;2112520;28;20209;-72
2023/08/28 00:01:27;;;;;;;4.95;4.25;;;;;23.50;100090.00;;;;2110363;27;20211;-72
2023/08/28 00:02:27;;;;;;;5.30;4.17;;;;;23.50;100054.00;;;;2113067;27;20203;-72
2023/08/28 00:03:28;;;;;;;5.77;4.37;;;;;23.50;100088.00;;;;2105022;27;20218;-72
2023/08/28 00:04:28;;;;;;;5.93;4.20;;;;;23.50;100079.00;;;;2098629;27;20203;-72
2023/08/28 00:05:32;;;;;;;5.40;4.03;;;;;23.50;100080.00;;;;2121436;27;20212;-72
2023/08/28 00:06:32;;;;;;;4.72;4.22;;;;;23.40;100073.00;;;;2112946;27;20299;-72
2023/08/28 00:07:32;;;;;;;5.67;4.40;;;;;23.50;100080.00;;;;2114207;27;20221;-72
2023/08/28 00:08:33;;;;;;;4.67;3.83;;;;;23.40;100086.00;;;;2100569;28;20639;-72
2023/08/28 00:09:34;;;;;;;5.60;4.07;;;;;23.40;100077.00;;;;2091661;28;20219;-72
2023/08/28 00:10:34;;;;;;;4.75;3.78;;;;;23.40;100079.00;;;;2121131;27;20206;-72
2023/08/28 00:11:35;;;;;;;5.63;3.83;;;;;23.40;100087.00;;;;2109686;27;20291;-72
2023/08/28 00:12:40;;;;;;;5.20;3.80;;;;;23.40;100091.00;;;;2115881;27;20749;-72
2023/08/28 00:13:40;;;;;;;6.65;4.40;;;;;23.50;100065.00;;;;2105414;27;20286;-72
2023/08/28 00:14:41;;;;;;;5.10;3.67;;;;;23.50;100090.00;;;;2111980;28;20260;-72
2023/08/28 00:15:41;;;;;;;4.40;3.40;;;;;23.50;100083.00;;;;2117666;27;20207;-72
2023/08/28 00:16:41;;;;;;;3.90;2.83;;;;;23.50;100092.00;;;;2115489;27;20683;-72
2023/08/28 00:17:42;;;;;;;3.73;3.30;;;;;23.50;100085.00;;;;2114447;27;20234;-72
2023/08/28 00:18:42;;;;;;;5.23;3.33;;;;;23.50;100083.00;;;;2095418;27;20233;-72
2023/08/28 00:19:43;;;;;;;4.93;3.93;;;;;23.40;100005.00;;;;2098528;28;20358;-72
2023/08/28 00:20:43;;;;;;;5.10;3.30;;;;;23.40;100078.00;;;;2104280;28;20445;-72
2023/08/28 00:21:44;;;;;;;4.60;3.67;;;;;23.40;100080.00;;;;2118506;27;20207;-72
2023/08/28 00:22:45;;;;;;;3.87;3.37;;;;;23.40;100034.00;;;;2108826;28;20207;-72
2023/08/28 00:23:45;;;;;;;4.83;3.27;;;;;23.40;100080.00;;;;2088610;28;20223;-72
2023/08/28 00:24:45;;;;;;;5.30;3.17;;;;;23.40;100073.00;;;;2106516;28;20489;-72
2023/08/28 00:25:45;;;;;;;4.67;3.13;;;;;23.40;100075.00;;;;2112420;28;20218;-72
2023/08/28 00:26:46;;;;;;;3.67;3.20;;;;;23.50;100085.00;;;;2117725;27;20249;-72
2023/08/28 00:27:47;;;;;;;3.80;3.40;;;;;23.40;100076.00;;;;2109462;28;20797;-72
2023/08/28 00:28:47;;;;;;;3.83;3.23;;;;;23.40;100075.00;;;;2102027;28;20763;-72
2023/08/28 00:29:47;;;;;;;3.67;2.90;;;;;23.40;100076.00;;;;2101221;28;20768;-73
2023/08/28 00:30:48;;;;;;;4.63;2.97;;;;;23.40;100087.00;;;;2104981;28;20711;-73
2023/08/28 00:31:48;;;;;;;3.20;2.90;;;;;23.40;100083.00;;;;2117284;28;20267;-73
2023/08/28 00:32:48;;;;;;;3.83;2.83;;;;;23.40;100081.00;;;;2089789;28;20242;-73
2023/08/28 00:33:49;;;;;;;3.60;3.03;;;;;23.50;100080.00;;;;2095730;28;20219;-73
2023/08/28 00:34:49;;;;;;;4.90;3.00;;;;;23.40;100084.00;;;;2105252;28;20676;-73
2023/08/28 00:35:49;;;;;;;3.73;2.50;;;;;23.40;100082.00;;;;2111759;28;20219;-72
2023/08/28 00:36:50;;;;;;;3.17;2.53;;;;;23.40;100080.00;;;;2108984;28;20230;-72
2023/08/28 00:37:50;;;;;;;5.67;2.83;;;;;23.40;100086.00;;;;2107104;28;20231;-72
2023/08/28 00:38:51;;;;;;;3.80;2.47;;;;;23.40;100084.00;;;;2101859;28;20210;-72
2023/08/28 00:39:51;;;;;;;3.37;2.50;;;;;23.40;100079.00;;;;2109392;28;20222;-72
2023/08/28 00:40:51;;;;;;;3.30;2.60;;;;;23.50;100081.00;;;;2112883;28;20226;-72
2023/08/28 00:41:52;;;;;;;3.53;2.27;;;;;23.40;100082.00;;;;2096003;28;20223;-72
2023/08/28 00:42:53;;;;;;;4.60;2.77;;;;;23.40;100086.00;;;;2103186;28;20214;-72
2023/08/28 00:43:53;;;;;;;3.30;2.50;;;;;23.40;100078.00;;;;2094388;28;20230;-72
2023/08/28 00:44:53;;;;;;;3.60;2.50;;;;;23.40;100083.00;;;;2108556;28;20457;-72
2023/08/28 00:45:54;;;;;;;4.50;2.20;;;;;23.40;100031.00;;;;2112467;28;20211;-72
2023/08/28 00:46:54;;;;;;;2.47;2.10;;;;;23.40;100081.00;;;;2094766;28;20227;-72
2023/08/28 00:47:54;;;;;;;3.47;2.50;;;;;23.40;100079.00;;;;2093006;28;20231;-72
2023/08/28 00:48:55;;;;;;;3.13;2.33;;;;;23.40;100079.00;;;;2088595;28;20230;-72
2023/08/28 00:49:55;;;;;;;2.80;2.23;;;;;23.40;100077.00;;;;2103543;28;20215;-72
2023/08/28 00:50:55;;;;;;;2.27;2.00;;;;;23.40;100079.00;;;;2084346;28;20275;-72
2023/08/28 00:51:56;;;;;;;3.17;2.57;;;;;23.40;100057.00;;;;2084089;28;20242;-72
2023/08/28 00:52:57;;;;;;;2.63;2.20;;;;;23.40;100080.00;;;;2083189;28;20231;-72
2023/08/28 00:53:57;;;;;;;2.37;2.00;;;;;23.40;100069.00;;;;2077171;28;20228;-72
2023/08/28 00:54:57;;;;;;;3.13;2.10;;;;;23.40;100081.00;;;;2087214;28;20223;-72
2023/08/28 00:55:58;;;;;;;3.50;2.87;;;;;23.40;100064.00;;;;2077996;28;20229;-72
2023/08/28 00:56:58;;;;;;;2.90;2.27;;;;;23.40;100075.00;;;;2082637;28;20248;-72
2023/08/28 00:57:58;;;;;;;2.50;2.30;;;;;23.40;100076.00;;;;2086124;28;21589;-72
2023/08/28 00:58:59;;;;;;;3.50;2.27;;;;;23.40;100028.00;;;;2101660;28;20238;-72
2023/08/28 00:59:59;;;;;;;2.17;1.97;;;;;23.40;100075.00;;;;2095310;28;20224;-72
2023/08/28 01:00:59;;;;;;;2.10;1.90;;;;;23.40;100068.00;;;;2090080;28;20220;-72
2023/08/28 01:02:00;;;;;;;3.20;2.23;;;;;23.40;100079.00;;;;2108902;28;20234;-72
2023/08/28 01:03:00;;;;;;;2.63;2.17;;;;;23.40;100069.00;;;;2112883;28;20258;-72
2023/08/28 01:04:00;;;;;;;2.37;2.03;;;;;23.40;100069.00;;;;2105094;28;20557;-72
2023/08/28 01:05:01;;;;;;;2.50;1.87;;;;;23.40;100052.00;;;;2113800;28;20229;-73
2023/08/28 01:06:23;;;;;;;5.43;2.20;;;;;23.40;100069.00;;;;2103965;28;20244;-73
2023/08/28 01:07:25;;;;;;;2.30;1.77;;;;;23.40;100063.00;;;;2099917;28;20227;-73
2023/08/28 01:08:50;;;;;;;3.03;2.17;;;;;23.40;100067.00;;;;2121032;28;20622;-73
2023/08/28 01:10:09;;;;;;;2.45;2.05;;;;;23.40;100015.00;;;;2094574;28;20313;-73
2023/08/28 01:11:13;;;;;;;2.05;1.83;;;;;23.40;100062.00;;;;2086722;28;20338;-73
2023/08/28 01:12:26;;;;;;;3.55;1.83;;;;;23.40;100066.00;;;;2105498;28;20633;-73
2023/08/28 01:13:31;;;;;;;2.28;1.70;;;;;23.40;100067.00;;;;2120027;28;20244;-73
2023/08/28 01:14:32;;;;;;;2.60;2.13;;;;;23.40;100049.00;;;;2090009;28;20638;-73
2023/08/28 01:15:32;;;;;;;1.83;1.57;;;;;23.40;100070.00;;;;2080595;28;20213;-73
2023/08/28 01:16:32;;;;;;;2.67;2.10;;;;;23.40;100068.00;;;;2088189;28;20209;-73
2023/08/28 01:17:33;;;;;;;3.00;2.00;;;;;23.30;100073.00;;;;2087131;28;20218;-73
2023/08/28 01:18:33;;;;;;;3.07;1.83;;;;;23.40;100032.00;;;;2081927;28;20256;-72
2023/08/28 01:19:38;;;;;;;2.47;1.70;;;;;23.40;100012.00;;;;2076442;28;20228;-72
2023/08/28 01:20:38;;;;;;;3.03;1.80;;;;;23.40;100060.00;;;;2087016;28;20205;-72
2023/08/28 01:21:38;;;;;;;2.47;1.70;;;;;23.40;99952.00;;;;2103674;28;20699;-72
2023/08/28 01:22:59;;;;;;;1.90;1.47;;;;;23.40;100055.00;;;;2093926;28;20657;-72
2023/08/28 01:24:00;;;;;;;2.80;1.50;;;;;23.40;100063.00;;;;2079123;28;20216;-72
2023/08/28 01:25:10;;;;;;;1.57;1.43;;;;;23.40;100059.00;;;;2084788;28;20231;-72
2023/08/28 01:26:11;;;;;;;2.58;1.85;;;;;23.40;100056.00;;;;2094300;28;20276;-72
2023/08/28 01:27:12;;;;;;;2.60;1.90;;;;;23.40;100064.00;;;;2106294;28;20235;-72
2023/08/28 01:28:12;;;;;;;3.17;1.50;;;;;23.40;100062.00;;;;2097214;28;20787;-72
2023/08/28 01:29:13;;;;;;;2.60;1.47;;;;;23.40;100069.00;;;;2084579;28;20221;-72
2023/08/28 01:30:14;;;;;;;2.20;1.60;;;;;23.40;100062.00;;;;2097222;28;20227;-72
2023/08/28 01:31:15;;;;;;;2.40;1.80;;;;;23.40;100066.00;;;;2112710;28;20218;-72
2023/08/28 01:32:16;;;;;;;2.05;1.48;;;;;23.40;100065.00;;;;2113681;28;20237;-72
2023/08/28 01:33:16;;;;;;;2.00;1.53;;;;;23.40;100057.00;;;;2105155;28;20220;-72
2023/08/28 01:34:17;;;;;;;3.30;1.30;;;;;23.40;100065.00;;;;2102488;28;20222;-72
2023/08/28 01:35:21;;;;;;;1.73;1.30;;;;;23.40;100065.00;;;;2111161;28;20215;-72
2023/08/28 01:36:33;;;;;;;2.35;1.98;;;;;23.40;100059.00;;;;2111745;28;20257;-72
2023/08/28 01:37:39;;;;;;;2.30;1.77;;;;;23.40;100058.00;;;;2085967;28;20305;-72
2023/08/28 01:38:44;;;;;;;3.40;1.40;;;;;23.40;100058.00;;;;2088778;28;20322;-72
2023/08/28 01:39:46;;;;;;;1.88;1.42;;;;;23.40;100052.00;;;;2100411;28;20281;-72
2023/08/28 01:41:01;;;;;;;1.90;1.63;;;;;23.40;100060.00;;;;2090881;28;20197;-72
2023/08/28 01:42:01;;;;;;;1.73;1.35;;;;;23.40;100050.00;;;;2082720;28;20220;-72
2023/08/28 01:43:02;;;;;;;1.60;1.43;;;;;23.20;100046.00;;;;2079245;28;20218;-72
2023/08/28 01:44:04;;;;;;;2.80;1.30;;;;;23.40;100035.00;;;;2089431;28;20219;-72
2023/08/28 01:45:06;;;;;;;1.85;1.45;;;;;23.40;100017.00;;;;2092843;28;20306;-72
2023/08/28 01:46:06;;;;;;;2.13;1.30;;;;;23.40;100044.00;;;;2083683;28;20232;-72
2023/08/28 01:47:07;;;;;;;1.40;1.20;;;;;23.40;100041.00;;;;2087317;28;20236;-72
2023/08/28 01:48:07;;;;;;;2.07;1.50;;;;;23.30;100041.00;;;;2088409;28;20277;-72
2023/08/28 01:49:07;;;;;;;3.20;1.50;;;;;23.30;100045.00;;;;2072676;28;20233;-72
2023/08/28 01:50:08;;;;;;;1.80;1.43;;;;;23.30;100048.00;;;;2101673;28;20308;-72
2023/08/28 01:51:08;;;;;;;2.47;1.47;;;;;23.40;100051.00;;;;2107226;28;20219;-72
2023/08/28 01:52:08;;;;;;;2.40;1.40;;;;;23.30;100046.00;;;;2109816;27;20754;-72
2023/08/28 01:53:10;;;;;;;5.93;1.40;;;;;23.30;100047.00;;;;2105395;28;20208;-72
2023/08/28 01:54:10;;;;;;;2.05;1.70;;;;;23.30;100048.00;;;;2097704;27;20222;-72
2023/08/28 01:55:11;;;;;;;1.70;1.60;;;;;23.30;100047.00;;;;2109424;27;20207;-73
2023/08/28 01:56:11;;;;;;;2.20;1.20;;;;;23.30;100047.00;;;;2104935;28;20247;-73
2023/08/28 01:57:11;;;;;;;1.50;1.00;;;;;23.40;100041.00;;;;2101853;28;20272;-73
2023/08/28 01:58:12;;;;;;;1.70;1.40;;;;;23.30;100044.00;;;;2104226;28;20212;-73
2023/08/28 01:59:12;;;;;;;2.20;1.13;;;;;23.30;100048.00;;;;2092029;28;20255;-73
2023/08/28 02:00:13;;;;;;;1.90;1.33;;;;;23.40;100042.00;;;;2096738;28;20563;-73
2023/08/28 02:01:13;;;;;;;2.10;1.47;;;;;23.40;100047.00;;;;2100718;28;20586;-73
2023/08/28 02:02:14;;;;;;;1.60;1.47;;;;;23.30;100052.00;;;;2103017;28;20211;-73
2023/08/28 02:03:14;;;;;;;1.97;1.30;;;;;23.30;100039.00;;;;2111517;28;20284;-73
2023/08/28 02:04:14;;;;;;;2.03;1.40;;;;;23.30;100046.00;;;;2095953;28;20220;-73
2023/08/28 02:05:14;;;;;;;1.27;1.17;;;;;23.30;100043.00;;;;2097045;28;20224;-73
2023/08/28 02:06:15;;;;;;;4.43;1.70;;;;;23.30;100038.00;;;;2098146;28;20252;-73
2023/08/28 02:07:15;;;;;;;1.83;1.50;;;;;23.30;100037.00;;;;2101623;28;20216;-73
2023/08/28 02:08:16;;;;;;;1.93;1.40;;;;;23.30;100047.00;;;;2104966;28;20740;-73
2023/08/28 02:09:16;;;;;;;1.47;1.13;;;;;23.30;100042.00;;;;2091625;28;20728;-73
2023/08/28 02:10:16;;;;;;;2.13;1.20;;;;;23.30;100049.00;;;;2098898;28;20733;-73
2023/08/28 02:11:17;;;;;;;1.47;1.27;;;;;23.30;100046.00;;;;2110837;28;20229;-73
2023/08/28 02:12:17;;;;;;;1.20;0.90;;;;;23.30;100009.00;;;;2113574;28;20211;-73
2023/08/28 02:13:17;;;;;;;2.17;1.40;;;;;23.30;100047.00;;;;2112914;28;20676;-73
2023/08/28 02:14:18;;;;;;;1.60;1.10;;;;;23.30;100045.00;;;;2102030;28;20695;-73
2023/08/28 02:15:19;;;;;;;1.67;1.27;;;;;23.30;100051.00;;;;2118719;27;20230;-73
2023/08/28 02:16:19;;;;;;;1.60;1.30;;;;;23.30;100056.00;;;;2105211;28;20215;-73
2023/08/28 02:17:20;;;;;;;1.90;1.40;;;;;23.30;100052.00;;;;2102177;28;20605;-73
2023/08/28 02:18:20;;;;;;;2.50;1.17;;;;;23.30;100050.00;;;;2100757;28;20215;-73
2023/08/28 02:19:20;;;;;;;1.87;1.10;;;;;23.30;100049.00;;;;2099537;28;20230;-73
2023/08/28 02:20:21;;;;;;;3.17;1.23;;;;;23.30;100047.00;;;;2106693;28;20211;-73
2023/08/28 02:21:21;;;;;;;2.10;1.23;;;;;23.30;100047.00;;;;2098517;28;20216;-73
2023/08/28 02:22:21;;;;;;;2.20;1.27;;;;;23.30;100056.00;;;;2099175;28;20246;-73
2023/08/28 02:23:22;;;;;;;1.40;1.07;;;;;23.30;100041.00;;;;2106265;27;20221;-73
2023/08/28 02:24:22;;;;;;;1.50;1.13;;;;;23.30;100045.00;;;;2087917;28;20227;-73
2023/08/28 02:25:23;;;;;;;1.70;1.20;;;;;23.30;100025.00;;;;2101698;28;20212;-73
2023/08/28 02:26:24;;;;;;;2.17;1.40;;;;;23.30;100038.00;;;;2105027;28;20230;-72
2023/08/28 02:27:24;;;;;;;1.67;1.23;;;;;23.30;100037.00;;;;2097666;28;20304;-72
2023/08/28 02:28:25;;;;;;;1.30;1.00;;;;;23.30;100039.00;;;;2087025;28;20949;-72
2023/08/28 02:29:25;;;;;;;1.50;1.00;;;;;23.30;100033.00;;;;2093067;28;20259;-72
2023/08/28 02:30:25;;;;;;;2.73;1.37;;;;;23.30;100038.00;;;;2103776;27;20211;-72
2023/08/28 02:31:26;;;;;;;2.47;1.27;;;;;23.30;99884.00;;;;2105603;28;20238;-72
2023/08/28 02:32:26;;;;;;;1.63;1.13;;;;;23.30;100034.00;;;;2113261;27;20216;-72
2023/08/28 02:33:26;;;;;;;1.40;1.10;;;;;23.30;100042.00;;;;2105432;28;20220;-72
2023/08/28 02:34:27;;;;;;;1.70;1.07;;;;;23.30;100042.00;;;;2095085;28;20248;-73
2023/08/28 02:35:27;;;;;;;1.40;1.07;;;;;23.30;100050.00;;;;2103763;28;20265;-73
2023/08/28 02:36:27;;;;;;;1.40;0.90;;;;;23.30;100050.00;;;;2108931;28;20219;-73
2023/08/28 02:37:28;;;;;;;1.43;1.17;;;;;23.30;100047.00;;;;2108252;28;20326;-73
2023/08/28 02:38:28;;;;;;;1.40;1.10;;;;;23.30;100040.00;;;;2108024;28;20756;-73
2023/08/28 02:39:28;;;;;;;1.67;1.17;;;;;23.30;100047.00;;;;2091456;28;20211;-72
2023/08/28 02:40:29;;;;;;;1.40;1.07;;;;;23.30;100048.00;;;;2105028;28;20254;-72
2023/08/28 02:41:29;;;;;;;1.43;1.00;;;;;23.30;100046.00;;;;2113720;28;20215;-72
2023/08/28 02:42:30;;;;;;;2.13;1.63;;;;;23.30;100051.00;;;;2111850;28;20722;-72
2023/08/28 02:43:30;;;;;;;1.43;1.10;;;;;23.30;100046.00;;;;2112692;28;20245;-72
2023/08/28 02:44:31;;;;;;;1.83;1.20;;;;;23.30;100042.00;;;;2092728;28;20212;-72
2023/08/28 02:45:35;;;;;;;1.83;1.17;;;;;23.30;100042.00;;;;2105089;28;20241;-73
2023/08/28 02:46:35;;;;;;;1.60;1.20;;;;;23.30;100048.00;;;;2100202;28;20216;-73
2023/08/28 02:47:35;;;;;;;1.57;1.30;;;;;23.30;100053.00;;;;2095886;28;20238;-73
2023/08/28 02:48:36;;;;;;;1.20;0.90;;;;;23.30;100046.00;;;;2101832;28;20236;-73
2023/08/28 02:49:36;;;;;;;1.80;1.27;;;;;23.30;100050.00;;;;2087344;28;20224;-73
2023/08/28 02:50:36;;;;;;;1.53;1.00;;;;;23.30;100049.00;;;;2112914;28;20218;-73
2023/08/28 02:51:37;;;;;;;1.57;1.10;;;;;23.30;100054.00;;;;2103118;28;20258;-73
2023/08/28 02:52:37;;;;;;;2.70;1.00;;;;;23.30;100058.00;;;;2112628;28;20294;-73
2023/08/28 02:53:37;;;;;;;1.73;1.30;;;;;23.30;100066.00;;;;2091187;28;20219;-73
2023/08/28 02:54:38;;;;;;;1.70;1.00;;;;;23.30;100030.00;;;;2088006;28;20793;-73
2023/08/28 02:55:39;;;;;;;1.40;1.00;;;;;23.30;100025.00;;;;2095931;28;20589;-72
2023/08/28 02:56:39;;;;;;;1.88;1.10;;;;;23.30;100069.00;;;;2091866;28;20272;-72
2023/08/28 02:57:40;;;;;;;1.33;1.20;;;;;23.30;100055.00;;;;2101136;28;21725;-72
2023/08/28 02:58:40;;;;;;;1.90;1.20;;;;;23.30;100078.00;;;;2095807;28;20778;-72
2023/08/28 02:59:40;;;;;;;1.50;1.10;;;;;23.30;100066.00;;;;2099949;28;20672;-72
2023/08/28 03:00:41;;;;;;;1.50;1.00;;;;;23.30;100081.00;;;;2087696;28;20689;-72
2023/08/28 03:01:42;;;;;;;1.10;0.90;;;;;23.30;100077.00;;;;2093213;28;20711;-72
2023/08/28 03:02:42;;;;;;;1.30;0.80;;;;;23.30;100080.00;;;;2107514;28;20433;-72
2023/08/28 03:03:43;;;;;;;2.50;1.17;;;;;23.30;100081.00;;;;2094271;28;20200;-72
2023/08/28 03:04:43;;;;;;;1.50;1.17;;;;;23.30;100080.00;;;;2101693;28;20711;-73
2023/08/28 03:05:47;;;;;;;1.50;1.10;;;;;23.30;100084.00;;;;2097645;28;20200;-73
2023/08/28 03:06:47;;;;;;;1.92;1.15;;;;;23.30;100090.00;;;;2104700;28;20303;-73
2023/08/28 03:07:48;;;;;;;2.43;1.30;;;;;23.30;100092.00;;;;2101377;28;20207;-73
2023/08/28 03:08:48;;;;;;;1.23;0.90;;;;;23.30;100086.00;;;;2089590;28;20204;-73
2023/08/28 03:09:48;;;;;;;2.10;1.43;;;;;23.30;100093.00;;;;2104569;28;20207;-73
2023/08/28 03:10:49;;;;;;;1.87;1.13;;;;;23.30;100087.00;;;;2109208;28;20265;-73
2023/08/28 03:11:49;;;;;;;2.70;1.20;;;;;23.30;100091.00;;;;2095319;28;20220;-72
2023/08/28 03:12:49;;;;;;;1.73;1.10;;;;;23.30;100091.00;;;;2092426;28;20206;-72
2023/08/28 03:13:50;;;;;;;1.80;1.20;;;;;23.30;100087.00;;;;2088036;28;20239;-73
2023/08/28 03:14:50;;;;;;;1.13;1.00;;;;;23.30;100097.00;;;;2098968;28;20208;-73
2023/08/28 03:15:50;;;;;;;1.97;1.30;;;;;23.30;100085.00;;;;2104735;28;20234;-73
2023/08/28 03:16:50;;;;;;;2.17;1.10;;;;;23.20;100038.00;;;;2102952;28;20568;-72
2023/08/28 03:17:51;;;;;;;1.60;1.40;;;;;23.30;100083.00;;;;2106155;28;20602;-72
2023/08/28 03:18:51;;;;;;;1.50;1.20;;;;;23.30;100089.00;;;;2099666;28;20693;-72
2023/08/28 03:19:51;;;;;;;2.53;1.20;;;;;23.30;100091.00;;;;2113488;28;20835;-72
2023/08/28 03:20:52;;;;;;;1.70;1.27;;;;;23.30;100098.00;;;;2102756;28;20684;-72
2023/08/28 03:21:52;;;;;;;2.50;1.17;;;;;23.30;100097.00;;;;2099278;28;20543;-72
2023/08/28 03:22:55;;;;;;;1.97;0.93;;;;;23.30;100105.00;;;;2099833;27;20692;-72
2023/08/28 03:23:55;;;;;;;1.65;1.20;;;;;23.30;100110.00;;;;2095341;28;20265;-72
2023/08/28 03:24:55;;;;;;;1.67;1.17;;;;;23.30;100079.00;;;;2110320;28;20203;-72
2023/08/28 03:25:56;;;;;;;1.70;1.10;;;;;23.30;100104.00;;;;2102788;28;21047;-72
2023/08/28 03:26:56;;;;;;;1.30;1.20;;;;;23.20;100107.00;;;;2104580;28;20708;-72
2023/08/28 03:27:56;;;;;;;1.40;1.30;;;;;23.30;100112.00;;;;2102963;28;21001;-72
2023/08/28 03:28:57;;;;;;;1.57;1.10;;;;;23.30;100115.00;;;;2091679;28;20792;-72
2023/08/28 03:29:57;;;;;;;1.60;1.33;;;;;23.30;100103.00;;;;2105771;28;20230;-72
2023/08/28 03:30:58;;;;;;;1.90;1.33;;;;;23.30;100100.00;;;;2098798;28;20681;-72
2023/08/28 03:31:58;;;;;;;1.50;1.23;;;;;23.30;100091.00;;;;2106287;28;20269;-72
2023/08/28 03:32:59;;;;;;;1.97;1.00;;;;;23.30;100098.00;;;;2103837;28;20467;-72
2023/08/28 03:34:00;;;;;;;1.67;1.30;;;;;23.20;100096.00;;;;2093767;28;20644;-72
2023/08/28 03:35:00;;;;;;;1.38;1.13;;;;;23.30;100101.00;;;;2103249;28;20226;-72
2023/08/28 03:36:01;;;;;;;1.40;1.03;;;;;23.30;100097.00;;;;2096401;28;20219;-72
2023/08/28 03:37:01;;;;;;;1.67;1.27;;;;;23.30;100107.00;;;;2111188;27;20272;-72
2023/08/28 03:38:02;;;;;;;1.63;0.90;;;;;23.30;100094.00;;;;2102701;27;20470;-72
2023/08/28 03:39:02;;;;;;;1.70;1.40;;;;;23.30;100105.00;;;;2095862;28;20272;-72
2023/08/28 03:40:04;;;;;;;1.97;1.13;;;;;23.30;100099.00;;;;2109389;28;20278;-72
2023/08/28 03:41:04;;;;;;;1.35;1.00;;;;;23.30;100098.00;;;;2113064;28;20229;-72
2023/08/28 03:42:05;;;;;;;1.30;1.13;;;;;23.30;100102.00;;;;2112370;27;20225;-72
2023/08/28 03:43:05;;;;;;;3.27;1.20;;;;;23.20;100098.00;;;;2107862;28;20726;-72
2023/08/28 03:44:05;;;;;;;1.57;1.47;;;;;23.20;100101.00;;;;2104997;27;20218;-72
2023/08/28 03:45:06;;;;;;;2.20;1.27;;;;;23.30;100096.00;;;;2113108;28;20268;-72
2023/08/28 03:46:06;;;;;;;1.63;1.40;;;;;23.30;100106.00;;;;2109709;28;20219;-72
2023/08/28 03:47:07;;;;;;;1.40;1.10;;;;;23.20;100108.00;;;;2105428;28;20450;-72
2023/08/28 03:48:07;;;;;;;2.13;1.10;;;;;23.10;100112.00;;;;2098613;28;20269;-72
2023/08/28 03:49:07;;;;;;;1.77;1.00;;;;;23.20;100111.00;;;;2089115;28;20219;-72
2023/08/28 03:50:08;;;;;;;2.30;1.27;;;;;23.20;100104.00;;;;2101505;28;20211;-72
2023/08/28 03:51:09;;;;;;;1.10;1.00;;;;;23.20;100065.00;;;;2106203;28;20219;-72
2023/08/28 03:52:09;;;;;;;1.87;1.10;;;;;23.20;100101.00;;;;2100216;28;20227;-72
2023/08/28 03:53:09;;;;;;;2.80;1.03;;;;;23.20;100109.00;;;;2107373;28;20292;-72
2023/08/28 03:54:12;;;;;;;1.13;0.93;;;;;23.20;100091.00;;;;2096565;28;20616;-72
2023/08/28 03:55:12;;;;;;;1.67;1.10;;;;;23.20;100103.00;;;;2107379;27;20214;-72
2023/08/28 03:56:13;;;;;;;2.43;1.17;;;;;23.20;100105.00;;;;2103141;28;20216;-72
2023/08/28 03:57:13;;;;;;;2.10;1.20;;;;;23.20;100105.00;;;;2108689;28;20528;-72
2023/08/28 03:58:14;;;;;;;1.80;1.13;;;;;23.20;100108.00;;;;2108981;28;20484;-72
2023/08/28 03:59:14;;;;;;;1.67;1.07;;;;;23.20;100101.00;;;;2095058;28;20207;-72
2023/08/28 04:00:14;;;;;;;1.70;1.20;;;;;23.20;100090.00;;;;2094668;28;20261;-72
2023/08/28 04:01:15;;;;;;;1.60;1.20;;;;;23.20;100097.00;;;;2097900;28;20208;-72
2023/08/28 04:02:15;;;;;;;2.33;1.30;;;;;23.20;100101.00;;;;2104696;28;20215;-72
2023/08/28 04:03:15;;;;;;;1.60;1.20;;;;;23.20;100101.00;;;;2102437;28;20650;-72
2023/08/28 04:04:16;;;;;;;2.07;1.00;;;;;23.20;100096.00;;;;2093588;28;20685;-72
2023/08/28 04:05:17;;;;;;;1.60;0.97;;;;;23.20;100052.00;;;;2096211;28;20227;-72
2023/08/28 04:06:17;;;;;;;1.40;1.20;;;;;23.20;100098.00;;;;2105443;28;20687;-72
2023/08/28 04:07:24;;;;;;;1.60;1.20;;;;;23.20;100089.00;;;;2100616;28;20219;-72
2023/08/28 04:08:25;;;;;;;1.98;1.23;;;;;23.20;100089.00;;;;2103824;28;20207;-72
2023/08/28 04:09:26;;;;;;;2.00;1.50;;;;;23.20;100075.00;;;;2088619;28;20342;-72
2023/08/28 04:10:27;;;;;;;3.72;1.40;;;;;23.20;100100.00;;;;2101467;28;20887;-72
2023/08/28 04:11:27;;;;;;;5.30;1.73;;;;;23.20;100109.00;;;;2091731;28;20243;-72
2023/08/28 04:12:27;;;;;;;1.90;1.27;;;;;23.20;100095.00;;;;2107129;28;20264;-72
2023/08/28 04:13:28;;;;;;;1.50;1.30;;;;;23.20;100098.00;;;;2104981;28;20234;-72
2023/08/28 04:14:28;;;;;;;2.87;1.30;;;;;23.20;100100.00;;;;2089323;28;20216;-72
2023/08/28 04:15:28;;;;;;;3.23;1.37;;;;;23.20;100100.00;;;;2114881;27;20218;-72
2023/08/28 04:16:29;;;;;;;1.60;1.17;;;;;23.20;100098.00;;;;2106928;28;20264;-72
2023/08/28 04:17:29;;;;;;;1.67;1.07;;;;;23.20;100104.00;;;;2110526;28;20218;-72
2023/08/28 04:18:30;;;;;;;1.53;1.17;;;;;23.20;100059.00;;;;2105102;28;20667;-72
2023/08/28 04:19:30;;;;;;;1.70;1.30;;;;;23.20;100096.00;;;;2105630;27;20682;-72
2023/08/28 04:20:30;;;;;;;1.40;1.03;;;;;23.20;100096.00;;;;2115172;27;20206;-72
2023/08/28 04:21:31;;;;;;;1.83;1.20;;;;;23.20;100087.00;;;;2102948;28;20236;-72
2023/08/28 04:22:31;;;;;;;2.53;1.87;;;;;23.20;100088.00;;;;2095987;28;20662;-72
2023/08/28 04:23:32;;;;;;;1.57;1.33;;;;;23.20;100090.00;;;;2102287;28;20257;-72
2023/08/28 04:24:32;;;;;;;1.80;1.30;;;;;23.20;100085.00;;;;2093290;28;20215;-72
2023/08/28 04:25:32;;;;;;;1.23;0.93;;;;;23.20;100082.00;;;;2100434;28;20219;-72
2023/08/28 04:26:32;;;;;;;1.37;1.27;;;;;23.20;100080.00;;;;2102558;28;20230;-72
2023/08/28 04:27:33;;;;;;;2.07;1.70;;;;;23.20;100080.00;;;;2104506;28;20219;-72
2023/08/28 04:28:33;;;;;;;1.63;1.40;;;;;23.20;100080.00;;;;2099317;28;20209;-72
2023/08/28 04:29:34;;;;;;;1.40;1.30;;;;;23.20;100077.00;;;;2080764;28;20213;-72
2023/08/28 04:30:34;;;;;;;1.97;1.47;;;;;23.20;100054.00;;;;2091361;28;20717;-72
2023/08/28 04:31:34;;;;;;;1.23;1.13;;;;;23.20;100092.00;;;;2106376;28;20229;-72
2023/08/28 04:32:35;;;;;;;1.90;1.27;;;;;23.20;100086.00;;;;2112676;28;20210;-72
2023/08/28 04:33:36;;;;;;;2.60;1.20;;;;;23.20;100077.00;;;;2096325;28;20215;-72
2023/08/28 04:34:36;;;;;;;1.25;1.15;;;;;23.20;100088.00;;;;2092362;28;20564;-72
2023/08/28 04:35:36;;;;;;;2.10;1.37;;;;;23.20;100075.00;;;;2095986;28;20282;-72
2023/08/28 04:36:37;;;;;;;1.20;1.10;;;;;23.20;100022.00;;;;2100823;28;20274;-72
2023/08/28 04:37:38;;;;;;;2.00;1.30;;;;;23.20;100051.00;;;;2081600;28;22087;-72
2023/08/28 04:38:38;;;;;;;1.30;1.03;;;;;23.20;100069.00;;;;2082498;28;20275;-72
2023/08/28 04:39:38;;;;;;;1.87;1.30;;;;;23.20;100070.00;;;;2109196;28;20931;-72
2023/08/28 04:40:39;;;;;;;2.63;1.50;;;;;23.20;100074.00;;;;2119634;28;20591;-72
2023/08/28 04:41:39;;;;;;;1.40;1.30;;;;;23.20;100058.00;;;;2113522;28;20568;-72
2023/08/28 04:42:39;;;;;;;2.37;1.60;;;;;23.20;100054.00;;;;2102330;28;20680;-72
2023/08/28 04:43:40;;;;;;;2.83;1.47;;;;;23.20;100059.00;;;;2093224;28;20703;-72
2023/08/28 04:44:40;;;;;;;1.90;1.33;;;;;23.20;100053.00;;;;2102724;28;20212;-72
2023/08/28 04:45:40;;;;;;;1.30;1.20;;;;;23.20;100003.00;;;;2103781;28;20713;-72
2023/08/28 04:46:41;;;;;;;1.20;1.10;;;;;23.20;100050.00;;;;2096995;28;20223;-72
2023/08/28 04:47:41;;;;;;;2.50;1.53;;;;;23.20;100005.00;;;;2110162;28;20230;-72
2023/08/28 04:48:41;;;;;;;2.00;1.77;;;;;23.20;100060.00;;;;2087924;28;20681;-72
2023/08/28 04:49:42;;;;;;;1.73;1.40;;;;;23.20;100062.00;;;;2100262;28;20238;-72
2023/08/28 04:50:42;;;;;;;1.83;1.53;;;;;23.20;100063.00;;;;2103376;28;20215;-72
2023/08/28 04:51:42;;;;;;;1.57;1.20;;;;;23.20;100061.00;;;;2098767;28;20220;-72
2023/08/28 04:52:43;;;;;;;2.70;1.40;;;;;23.20;100063.00;;;;2098986;28;20219;-72
2023/08/28 04:53:43;;;;;;;2.43;1.80;;;;;23.20;100066.00;;;;2099191;28;20254;-72
2023/08/28 04:54:43;;;;;;;2.10;1.60;;;;;23.00;100062.00;;;;2103486;28;20694;-72
2023/08/28 04:55:44;;;;;;;2.23;1.60;;;;;23.20;100064.00;;;;2110158;28;20583;-72
2023/08/28 04:56:44;;;;;;;2.90;1.50;;;;;23.10;100069.00;;;;2103614;28;20591;-72
2023/08/28 04:57:44;;;;;;;1.23;1.13;;;;;23.20;100075.00;;;;2107906;28;20736;-72
2023/08/28 04:58:45;;;;;;;2.60;1.70;;;;;23.20;100068.00;;;;2087491;28;20685;-72
2023/08/28 04:59:45;;;;;;;1.43;1.30;;;;;23.20;100073.00;;;;2101511;28;20743;-72
2023/08/28 05:00:46;;;;;;;1.67;1.50;;;;;23.20;100089.00;;;;2109819;28;20268;-72
2023/08/28 05:01:46;;;;;;;2.00;1.73;;;;;23.20;100081.00;;;;2103450;28;20220;-72